Time;durP1;ratioP1;P1;durP2;ratioP2;P2;SDS_P1;SDS_P2;PMS_P1;PMS_P2;Temp;Humidity;BMP_temperature;BMP_pressure;BME280_temperature;BME280_humidity;BME280_pressure;Samples;Min_cycle;Max_cycle;Signal;HPM_P1;HPM_P2
2023/11/07 00:00:42;;;;;;;0.70;0.70;;;7.10;99.90;;;;;;5086205;28;20206;-75
2023/11/07 00:03:09;;;;;;;0.50;0.50;;;7.10;99.90;;;;;;5085951;28;20363;-75
2023/11/07 00:05:36;;;;;;;0.52;0.52;;;7.10;99.90;;;;;;5085911;28;20199;-75
2023/11/07 00:08:03;;;;;;;0.83;0.83;;;6.80;99.90;;;;;;5084786;28;20191;-75
2023/11/07 00:10:32;;;;;;;0.30;0.30;;;6.80;99.90;;;;;;5086201;28;20728;-75
2023/11/07 00:12:58;;;;;;;0.70;0.70;;;6.80;99.90;;;;;;5085836;28;20745;-74
2023/11/07 00:15:26;;;;;;;0.57;0.53;;;6.80;99.90;;;;;;5077579;28;20613;-75
2023/11/07 00:17:53;;;;;;;0.37;0.37;;;6.80;99.90;;;;;;5085334;28;20628;-74
2023/11/07 00:20:20;;;;;;;0.40;0.30;;;6.70;99.90;;;;;;5088951;28;20675;-75
2023/11/07 00:22:46;;;;;;;2.50;0.60;;;6.70;99.90;;;;;;5089592;28;20982;-74
2023/11/07 00:25:13;;;;;;;1.10;0.97;;;6.80;99.90;;;;;;5089372;28;20616;-74
2023/11/07 00:27:41;;;;;;;0.80;0.80;;;6.70;99.90;;;;;;5088758;28;20629;-74
2023/11/07 00:30:09;;;;;;;0.80;0.80;;;6.70;99.90;;;;;;5089254;28;20203;-74
2023/11/07 00:32:35;;;;;;;0.40;0.40;;;6.60;99.90;;;;;;5089243;28;20199;-74
2023/11/07 00:35:02;;;;;;;0.80;0.80;;;6.60;99.90;;;;;;5088795;28;20543;-74
2023/11/07 00:37:29;;;;;;;0.83;0.70;;;6.70;99.90;;;;;;5089058;28;20624;-75
2023/11/07 00:39:56;;;;;;;0.90;0.77;;;6.70;99.90;;;;;;5089165;28;20669;-74
2023/11/07 00:42:23;;;;;;;1.10;0.90;;;6.60;99.90;;;;;;5089165;28;20640;-73
2023/11/07 00:44:51;;;;;;;0.57;0.57;;;6.60;99.90;;;;;;5088942;28;20203;-74
2023/11/07 00:47:17;;;;;;;0.80;0.70;;;6.50;99.90;;;;;;5088408;28;20632;-74
2023/11/07 00:49:45;;;;;;;1.10;0.80;;;6.40;99.90;;;;;;5088415;28;21183;-74
2023/11/07 00:52:11;;;;;;;3.10;1.30;;;6.50;99.90;;;;;;5089142;28;20635;-75
2023/11/07 00:54:38;;;;;;;0.95;0.95;;;6.30;99.90;;;;;;5089207;28;20627;-75
2023/11/07 00:57:05;;;;;;;1.25;0.82;;;6.30;99.90;;;;;;5080118;28;20202;-74
2023/11/07 00:59:32;;;;;;;1.15;0.82;;;6.20;99.90;;;;;;5088823;28;20223;-75
2023/11/07 01:02:00;;;;;;;1.02;0.60;;;6.20;99.90;;;;;;5088279;28;20201;-74
2023/11/07 01:04:27;;;;;;;1.88;1.10;;;6.20;99.90;;;;;;5088960;28;20199;-74
2023/11/07 01:06:53;;;;;;;1.10;1.00;;;6.20;99.90;;;;;;5088604;28;20195;-75
2023/11/07 01:09:20;;;;;;;0.98;0.88;;;6.20;99.90;;;;;;5088247;28;20529;-75
2023/11/07 01:11:47;;;;;;;0.90;0.80;;;6.20;99.90;;;;;;5088537;28;20205;-75
2023/11/07 01:14:14;;;;;;;2.08;0.98;;;6.20;99.90;;;;;;5088690;28;20210;-75
2023/11/07 01:16:41;;;;;;;1.25;0.90;;;6.30;99.90;;;;;;5087885;28;20552;-75
2023/11/07 01:19:09;;;;;;;2.75;1.17;;;6.20;99.90;;;;;;5087635;28;20331;-75
2023/11/07 01:21:36;;;;;;;1.08;0.73;;;6.10;99.90;;;;;;5088549;28;20609;-74
2023/11/07 01:24:04;;;;;;;3.38;1.13;;;6.30;99.90;;;;;;5088416;28;20210;-74
2023/11/07 01:26:31;;;;;;;0.43;0.43;;;6.10;99.90;;;;;;5088344;28;20275;-75
2023/11/07 01:28:58;;;;;;;13.65;1.40;;;6.00;99.90;;;;;;5087376;28;20203;-75
2023/11/07 01:31:25;;;;;;;1.77;1.45;;;5.90;99.90;;;;;;5087455;28;20210;-75
2023/11/07 01:33:52;;;;;;;1.33;1.20;;;5.90;99.90;;;;;;5088222;28;20203;-75
2023/11/07 01:36:20;;;;;;;1.48;0.70;;;5.90;99.90;;;;;;5088031;28;20504;-75
2023/11/07 01:38:47;;;;;;;0.80;0.63;;;5.80;99.90;;;;;;5079177;28;20593;-75
2023/11/07 01:41:14;;;;;;;1.15;0.75;;;5.90;99.90;;;;;;5087967;28;20726;-75
2023/11/07 01:43:41;;;;;;;0.55;0.55;;;5.90;99.90;;;;;;5087234;28;20290;-75
2023/11/07 01:46:08;;;;;;;2.10;1.30;;;5.90;99.90;;;;;;5087752;28;20205;-74
2023/11/07 01:48:36;;;;;;;0.85;0.80;;;5.90;99.90;;;;;;5087264;28;20195;-75
2023/11/07 01:51:04;;;;;;;1.00;0.47;;;5.80;99.90;;;;;;5087846;28;20222;-75
2023/11/07 01:53:33;;;;;;;0.80;0.80;;;5.80;99.90;;;;;;5088142;28;20195;-74
2023/11/07 01:56:00;;;;;;;0.43;0.43;;;5.90;99.90;;;;;;5087508;28;20567;-75
2023/11/07 01:58:27;;;;;;;1.10;1.02;;;5.80;99.90;;;;;;5086485;28;20192;-75
2023/11/07 02:00:54;;;;;;;0.75;0.75;;;5.90;99.90;;;;;;5087625;28;20265;-75
2023/11/07 02:03:22;;;;;;;0.57;0.55;;;5.80;99.90;;;;;;5087344;28;20237;-74
2023/11/07 02:05:49;;;;;;;1.40;1.30;;;5.80;99.90;;;;;;5087182;28;20203;-75
2023/11/07 02:08:16;;;;;;;1.00;1.00;;;5.80;99.90;;;;;;5077779;28;20252;-75
2023/11/07 02:10:45;;;;;;;0.60;0.60;;;5.80;99.90;;;;;;5086797;28;20199;-75
2023/11/07 02:13:12;;;;;;;1.10;0.47;;;5.70;99.90;;;;;;5087425;28;20214;-74
2023/11/07 02:15:40;;;;;;;1.23;1.13;;;5.70;99.90;;;;;;5087285;28;20195;-75
2023/11/07 02:18:08;;;;;;;0.90;0.40;;;5.80;99.90;;;;;;5087024;28;20199;-74
2023/11/07 02:20:36;;;;;;;0.60;0.45;;;5.80;99.90;;;;;;5087050;28;20296;-74
2023/11/07 02:23:09;;;;;;;0.63;0.60;;;5.80;99.90;;;;;;5087264;28;20199;-74
2023/11/07 02:25:39;;;;;;;0.75;0.55;;;5.80;99.90;;;;;;5078295;28;20187;-74
2023/11/07 02:28:08;;;;;;;1.30;0.60;;;5.80;99.90;;;;;;5086825;28;20195;-74
2023/11/07 02:30:36;;;;;;;0.80;0.77;;;5.80;99.90;;;;;;5085514;28;20516;-74
2023/11/07 02:33:05;;;;;;;1.27;1.02;;;5.90;99.90;;;;;;5087038;28;20644;-74
2023/11/07 02:35:34;;;;;;;0.55;0.55;;;5.90;99.90;;;;;;5086763;28;20195;-74
2023/11/07 02:38:02;;;;;;;0.47;0.47;;;5.90;99.90;;;;;;5086025;28;21079;-74
2023/11/07 02:40:34;;;;;;;0.65;0.65;;;6.00;99.90;;;;;;5086893;28;20288;-74
2023/11/07 02:43:04;;;;;;;4.45;0.70;;;6.00;99.90;;;;;;5086838;28;20985;-75
2023/11/07 02:45:37;;;;;;;0.50;0.30;;;6.00;99.90;;;;;;5086731;28;20200;-74
2023/11/07 02:48:06;;;;;;;0.90;0.80;;;5.80;99.90;;;;;;5086335;28;20200;-75
2023/11/07 02:50:34;;;;;;;1.35;0.68;;;5.70;99.90;;;;;;5086575;28;20784;-75
2023/11/07 02:53:01;;;;;;;1.10;0.90;;;5.70;99.90;;;;;;5078917;28;20203;-74
2023/11/07 02:55:29;;;;;;;0.80;0.50;;;5.80;99.90;;;;;;5086840;28;20202;-74
2023/11/07 02:57:56;;;;;;;0.55;0.55;;;5.90;99.90;;;;;;5085711;28;20202;-74
2023/11/07 03:00:26;;;;;;;0.60;0.60;;;5.90;99.90;;;;;;5086828;28;20639;-74
2023/11/07 03:02:53;;;;;;;0.40;0.40;;;5.90;99.90;;;;;;5086027;28;20271;-75
2023/11/07 03:05:20;;;;;;;0.47;0.47;;;5.90;99.90;;;;;;5086774;28;20572;-75
2023/11/07 03:07:47;;;;;;;0.50;0.47;;;6.10;99.90;;;;;;5086310;28;20609;-75
2023/11/07 03:10:14;;;;;;;0.90;0.65;;;6.10;99.90;;;;;;5086605;28;20357;-74
2023/11/07 03:12:42;;;;;;;0.30;0.30;;;6.10;99.90;;;;;;5086442;28;20195;-74
2023/11/07 03:15:10;;;;;;;0.50;0.50;;;6.20;99.90;;;;;;5086445;28;20206;-74
2023/11/07 03:17:39;;;;;;;0.50;0.43;;;6.20;99.90;;;;;;5085648;28;20605;-74
2023/11/07 03:20:08;;;;;;;1.05;0.60;;;6.30;99.90;;;;;;5082057;28;20233;-74
2023/11/07 03:22:36;;;;;;;1.02;0.60;;;6.30;99.90;;;;;;5086614;28;20203;-73
2023/11/07 03:25:04;;;;;;;0.80;0.45;;;6.30;99.90;;;;;;5085464;28;20210;-74
2023/11/07 03:27:32;;;;;;;0.40;0.38;;;6.30;99.90;;;;;;5085921;28;20208;-74
2023/11/07 03:29:59;;;;;;;0.65;0.50;;;6.20;99.90;;;;;;5085839;28;20195;-74
2023/11/07 03:32:27;;;;;;;0.55;0.55;;;6.30;99.90;;;;;;5086251;28;20231;-75
2023/11/07 03:34:57;;;;;;;0.47;0.40;;;6.30;99.90;;;;;;5086264;28;20199;-74
2023/11/07 03:37:25;;;;;;;1.05;0.70;;;6.30;99.90;;;;;;5085890;28;20219;-74
2023/11/07 03:39:53;;;;;;;0.50;0.50;;;6.20;99.90;;;;;;5086344;28;20219;-74
2023/11/07 03:42:20;;;;;;;0.60;0.40;;;6.20;99.90;;;;;;5085983;28;20199;-74
2023/11/07 03:44:48;;;;;;;1.45;0.50;;;6.20;99.90;;;;;;5086247;28;20656;-75
2023/11/07 03:47:17;;;;;;;0.40;0.30;;;6.10;99.90;;;;;;5085802;28;20199;-74
2023/11/07 03:49:45;;;;;;;0.55;0.55;;;6.10;99.90;;;;;;5086092;28;20264;-74
2023/11/07 03:52:15;;;;;;;0.60;0.40;;;6.10;99.90;;;;;;5086063;28;20218;-74
2023/11/07 03:54:42;;;;;;;0.40;0.40;;;6.00;99.90;;;;;;5088509;28;20223;-74
2023/11/07 03:57:09;;;;;;;0.30;0.30;;;5.90;99.90;;;;;;5088095;28;20195;-76
2023/11/07 03:59:36;;;;;;;0.80;0.60;;;6.00;99.90;;;;;;5089105;28;20718;-74
2023/11/07 04:02:04;;;;;;;0.60;0.60;;;5.90;99.90;;;;;;5089256;28;20203;-74
2023/11/07 04:04:31;;;;;;;0.50;0.40;;;5.90;99.90;;;;;;5089160;28;20416;-75
2023/11/07 04:06:59;;;;;;;0.50;0.30;;;6.00;99.90;;;;;;5089274;28;20199;-74
2023/11/07 04:09:27;;;;;;;0.82;0.82;;;5.90;99.90;;;;;;5087311;28;20274;-74
2023/11/07 04:11:53;;;;;;;0.40;0.30;;;5.80;99.90;;;;;;5089784;28;20207;-76
2023/11/07 04:14:21;;;;;;;0.57;0.57;;;5.80;99.90;;;;;;5089459;28;20211;-74
2023/11/07 04:16:48;;;;;;;0.63;0.60;;;5.80;99.90;;;;;;5086508;28;20288;-74
2023/11/07 04:19:15;;;;;;;1.45;0.70;;;5.80;99.90;;;;;;5088785;28;20283;-74
2023/11/07 04:21:42;;;;;;;0.95;0.65;;;5.80;99.90;;;;;;5089345;28;20242;-74
2023/11/07 04:24:12;;;;;;;0.55;0.55;;;5.70;99.90;;;;;;5088519;28;20298;-74
2023/11/07 04:26:40;;;;;;;0.63;0.50;;;5.80;99.90;;;;;;5089527;28;20191;-74
2023/11/07 04:29:07;;;;;;;1.88;0.90;;;5.70;99.90;;;;;;5089142;28;20206;-74
2023/11/07 04:31:34;;;;;;;0.50;0.50;;;5.70;99.90;;;;;;5089300;28;20223;-74
2023/11/07 04:34:01;;;;;;;0.77;0.70;;;5.80;99.90;;;;;;5089076;28;20207;-74
2023/11/07 04:36:27;;;;;;;0.88;0.57;;;5.80;99.90;;;;;;5089077;28;20198;-74
2023/11/07 04:38:54;;;;;;;0.40;0.40;;;5.80;99.90;;;;;;5088356;28;20197;-75
2023/11/07 04:41:21;;;;;;;0.57;0.40;;;5.80;99.90;;;;;;5089149;28;20233;-75
2023/11/07 04:43:50;;;;;;;0.50;0.50;;;5.90;99.90;;;;;;5089352;28;20541;-75
2023/11/07 04:46:17;;;;;;;0.55;0.47;;;5.90;99.90;;;;;;5088778;28;20199;-75
2023/11/07 04:48:44;;;;;;;0.85;0.85;;;5.90;99.90;;;;;;5088402;28;20286;-74
2023/11/07 04:51:11;;;;;;;0.80;0.80;;;5.90;99.90;;;;;;5088505;28;20203;-74
2023/11/07 04:53:37;;;;;;;0.65;0.65;;;5.90;99.90;;;;;;5088906;28;20201;-75
2023/11/07 04:56:05;;;;;;;0.40;0.40;;;5.80;99.90;;;;;;5088926;28;20203;-75
2023/11/07 04:58:32;;;;;;;2.15;0.82;;;5.90;99.90;;;;;;5088393;28;20199;-75
2023/11/07 05:01:01;;;;;;;7.53;1.50;;;5.90;99.90;;;;;;5089096;28;20222;-75
2023/11/07 05:03:30;;;;;;;1.30;1.20;;;6.00;99.90;;;;;;5088891;28;20568;-75
2023/11/07 05:05:58;;;;;;;1.70;1.08;;;5.90;99.90;;;;;;5088269;28;20204;-74
2023/11/07 05:08:24;;;;;;;0.55;0.45;;;5.90;99.90;;;;;;5088117;28;20298;-75
2023/11/07 05:10:51;;;;;;;0.70;0.65;;;5.90;99.90;;;;;;5088672;28;20226;-75
2023/11/07 05:13:18;;;;;;;0.70;0.70;;;5.80;99.90;;;;;;5088689;28;20245;-75
2023/11/07 05:15:45;;;;;;;4.70;1.35;;;5.80;99.90;;;;;;5088100;28;20191;-75
2023/11/07 05:18:14;;;;;;;0.70;0.70;;;5.80;99.90;;;;;;5079513;28;20215;-75
2023/11/07 05:20:42;;;;;;;0.98;0.70;;;5.60;99.90;;;;;;5088301;28;20223;-74
2023/11/07 05:23:09;;;;;;;1.15;0.60;;;5.80;99.90;;;;;;5088251;28;20206;-75
2023/11/07 05:25:36;;;;;;;0.63;0.57;;;5.90;99.90;;;;;;5088145;28;20203;-75
2023/11/07 05:28:04;;;;;;;0.82;0.82;;;5.70;99.90;;;;;;5087702;28;20206;-75
2023/11/07 05:30:31;;;;;;;0.40;0.40;;;5.60;99.90;;;;;;5088247;28;20203;-75
2023/11/07 05:32:58;;;;;;;0.55;0.45;;;5.60;99.90;;;;;;5087676;28;20695;-75
2023/11/07 05:35:26;;;;;;;0.68;0.65;;;5.70;99.90;;;;;;5088114;28;20694;-75
2023/11/07 05:37:54;;;;;;;0.45;0.45;;;5.70;99.90;;;;;;5087671;28;20195;-75
2023/11/07 05:40:23;;;;;;;1.88;0.70;;;5.70;99.90;;;;;;5087958;28;20596;-75
2023/11/07 05:42:50;;;;;;;1.15;0.70;;;5.80;99.90;;;;;;5088304;28;20199;-75
2023/11/07 05:45:17;;;;;;;1.13;0.50;;;5.80;99.90;;;;;;5087379;28;20199;-75
2023/11/07 05:47:44;;;;;;;0.40;0.40;;;5.90;99.90;;;;;;5087317;28;20285;-75
2023/11/07 05:50:11;;;;;;;0.50;0.40;;;6.00;99.90;;;;;;5088064;28;20199;-75
2023/11/07 05:52:39;;;;;;;1.38;0.50;;;5.90;99.90;;;;;;5087819;28;20199;-75
2023/11/07 05:55:08;;;;;;;0.90;0.90;;;5.80;99.90;;;;;;5087723;28;20198;-75
2023/11/07 05:57:35;;;;;;;1.30;0.60;;;5.80;99.90;;;;;;5087252;28;20549;-75
2023/11/07 06:00:06;;;;;;;1.30;0.80;;;5.90;99.90;;;;;;5087248;28;20198;-75
2023/11/07 06:02:33;;;;;;;1.80;1.05;;;6.00;99.90;;;;;;5087960;28;20203;-75
2023/11/07 06:04:59;;;;;;;0.82;0.82;;;6.10;99.90;;;;;;5087571;28;20218;-75
2023/11/07 06:07:27;;;;;;;0.77;0.77;;;6.10;99.90;;;;;;5087124;28;20209;-75
2023/11/07 06:09:55;;;;;;;2.90;0.80;;;6.00;99.90;;;;;;5087393;28;20214;-74
2023/11/07 06:12:22;;;;;;;1.80;1.17;;;6.00;99.90;;;;;;5087217;28;20203;-75
2023/11/07 06:14:49;;;;;;;1.75;0.90;;;6.00;99.90;;;;;;5086943;28;20276;-75
2023/11/07 06:17:17;;;;;;;0.85;0.75;;;5.80;99.90;;;;;;5085940;28;20709;-73
2023/11/07 06:19:44;;;;;;;1.80;0.95;;;6.00;99.90;;;;;;5087100;28;20671;-74
2023/11/07 06:22:11;;;;;;;2.22;1.10;;;6.10;99.90;;;;;;5087115;28;20318;-74
2023/11/07 06:24:38;;;;;;;0.85;0.65;;;6.10;99.90;;;;;;5086236;28;20204;-73
2023/11/07 06:27:07;;;;;;;0.77;0.77;;;5.90;99.90;;;;;;5086532;28;20374;-74
2023/11/07 06:29:34;;;;;;;0.95;0.95;;;5.90;99.90;;;;;;5087074;28;20206;-74
2023/11/07 06:32:00;;;;;;;1.00;0.88;;;6.00;99.90;;;;;;5087080;28;20207;-75
2023/11/07 06:34:27;;;;;;;0.75;0.60;;;5.80;99.90;;;;;;5078957;28;20201;-75
2023/11/07 06:36:54;;;;;;;1.27;0.80;;;5.80;99.90;;;;;;5086895;28;20549;-74
2023/11/07 06:39:23;;;;;;;1.15;0.80;;;5.90;99.90;;;;;;5086465;28;20627;-75
2023/11/07 06:41:51;;;;;;;0.60;0.52;;;5.80;99.90;;;;;;5086332;28;20222;-75
2023/11/07 06:44:19;;;;;;;1.45;1.13;;;5.70;99.90;;;;;;5086772;28;20717;-75
2023/11/07 06:46:49;;;;;;;1.05;0.95;;;5.90;99.90;;;;;;5086707;28;20195;-76
2023/11/07 06:49:16;;;;;;;0.85;0.82;;;5.80;99.90;;;;;;5086517;28;20214;-76
2023/11/07 06:51:42;;;;;;;2.10;0.82;;;5.80;99.90;;;;;;5086569;28;20684;-74
2023/11/07 06:54:09;;;;;;;1.25;1.15;;;5.80;99.90;;;;;;5086043;28;20195;-74
2023/11/07 06:56:37;;;;;;;2.08;1.42;;;5.80;99.90;;;;;;5086877;28;20201;-74
2023/11/07 06:59:03;;;;;;;0.77;0.73;;;5.90;99.90;;;;;;5086291;28;20539;-74
2023/11/07 07:01:32;;;;;;;0.80;0.80;;;5.90;99.90;;;;;;5086642;28;20296;-75
2023/11/07 07:03:58;;;;;;;0.65;0.65;;;6.00;99.90;;;;;;5078589;28;20248;-74
2023/11/07 07:06:25;;;;;;;0.77;0.77;;;6.00;99.90;;;;;;5086743;28;20285;-74
2023/11/07 07:08:52;;;;;;;0.88;0.88;;;6.00;99.90;;;;;;5085490;28;20668;-74
2023/11/07 07:11:19;;;;;;;1.10;1.00;;;6.00;99.90;;;;;;5086894;28;20506;-74
2023/11/07 07:13:47;;;;;;;0.80;0.80;;;6.00;99.90;;;;;;5086234;28;20634;-74
2023/11/07 07:16:14;;;;;;;1.33;1.23;;;5.90;99.90;;;;;;5086290;28;20202;-76
2023/11/07 07:18:43;;;;;;;1.65;1.50;;;6.00;99.90;;;;;;5085914;28;20234;-74
2023/11/07 07:21:12;;;;;;;0.80;0.80;;;6.10;99.90;;;;;;5085733;28;20696;-74
2023/11/07 07:23:46;;;;;;;1.30;1.20;;;6.10;99.90;;;;;;5086500;28;20650;-74
2023/11/07 07:26:14;;;;;;;0.70;0.70;;;6.30;99.90;;;;;;5086438;28;20199;-74
2023/11/07 07:28:41;;;;;;;0.88;0.88;;;6.20;99.90;;;;;;5089477;28;20279;-74
2023/11/07 07:31:07;;;;;;;1.90;1.20;;;6.30;99.90;;;;;;5090855;28;20282;-74
2023/11/07 07:33:35;;;;;;;1.20;1.20;;;6.40;99.90;;;;;;5090474;28;20195;-74
2023/11/07 07:36:05;;;;;;;1.65;1.30;;;6.50;99.90;;;;;;5089949;28;20565;-75
2023/11/07 07:38:32;;;;;;;1.45;1.27;;;6.50;99.90;;;;;;5083549;28;20275;-75
2023/11/07 07:40:59;;;;;;;3.65;2.70;;;6.70;99.90;;;;;;5097363;28;20226;-74
2023/11/07 07:43:27;;;;;;;2.92;1.80;;;6.70;99.90;;;;;;5090387;28;20235;-74
2023/11/07 07:45:55;;;;;;;1.20;1.10;;;6.70;99.90;;;;;;5090132;28;20203;-75
2023/11/07 07:48:22;;;;;;;0.80;0.80;;;6.90;99.90;;;;;;5089214;28;20207;-74
2023/11/07 07:50:51;;;;;;;1.23;0.95;;;6.80;99.90;;;;;;5090343;28;21044;-74
2023/11/07 07:53:20;;;;;;;0.98;0.80;;;6.90;99.90;;;;;;5090188;28;20206;-74
2023/11/07 07:55:50;;;;;;;0.70;0.70;;;7.00;99.90;;;;;;5089820;28;20244;-74
2023/11/07 07:58:18;;;;;;;0.60;0.60;;;7.10;99.90;;;;;;5089164;28;20639;-74
2023/11/07 08:00:49;;;;;;;0.73;0.70;;;7.30;99.90;;;;;;5089148;28;21279;-74
2023/11/07 08:03:16;;;;;;;1.20;0.67;;;7.40;99.90;;;;;;5090089;28;20636;-74
2023/11/07 08:05:44;;;;;;;0.80;0.80;;;7.50;99.90;;;;;;5089760;28;20627;-74
2023/11/07 08:08:11;;;;;;;0.57;0.50;;;7.50;99.90;;;;;;5089821;28;20668;-75
2023/11/07 08:10:40;;;;;;;1.30;1.20;;;7.60;99.90;;;;;;5089700;28;20720;-75
2023/11/07 08:13:09;;;;;;;0.50;0.50;;;7.70;99.90;;;;;;5081112;28;20660;-75
2023/11/07 08:15:37;;;;;;;1.63;0.93;;;7.70;99.90;;;;;;5089354;28;20636;-75
2023/11/07 08:18:06;;;;;;;0.70;0.60;;;7.80;99.90;;;;;;5089058;28;20631;-75
2023/11/07 08:20:33;;;;;;;0.87;0.87;;;8.00;99.90;;;;;;5089717;28;20621;-75
2023/11/07 08:23:01;;;;;;;0.80;0.70;;;7.90;99.90;;;;;;5089662;28;20672;-75
2023/11/07 08:25:29;;;;;;;6.50;0.80;;;8.00;99.90;;;;;;5089269;28;20732;-75
2023/11/07 08:27:57;;;;;;;2.40;2.10;;;8.10;99.90;;;;;;5088722;28;20627;-75
2023/11/07 08:30:25;;;;;;;3.30;0.70;;;8.20;99.90;;;;;;5081378;28;21158;-75
2023/11/07 08:32:53;;;;;;;0.73;0.50;;;8.20;99.90;;;;;;5089525;28;20621;-75
2023/11/07 08:35:20;;;;;;;0.93;0.50;;;8.30;99.90;;;;;;5089477;28;20976;-75
2023/11/07 08:37:49;;;;;;;1.90;0.90;;;8.40;99.90;;;;;;5089078;28;20639;-74
2023/11/07 08:40:20;;;;;;;1.43;1.00;;;8.50;99.90;;;;;;5088279;28;20661;-74
2023/11/07 08:42:48;;;;;;;2.57;0.93;;;8.60;99.90;;;;;;5089267;28;20671;-74
2023/11/07 08:45:18;;;;;;;0.70;0.70;;;8.60;99.90;;;;;;5089541;28;20714;-74
2023/11/07 08:47:46;;;;;;;1.03;0.83;;;8.70;99.90;;;;;;5080752;28;20632;-74
2023/11/07 08:50:13;;;;;;;0.80;0.80;;;8.70;99.90;;;;;;5089012;28;20720;-73
2023/11/07 08:52:41;;;;;;;0.93;0.60;;;8.80;99.90;;;;;;5088966;28;20626;-74
2023/11/07 08:55:08;;;;;;;2.70;0.80;;;8.80;99.90;;;;;;5088303;28;20629;-75
2023/11/07 08:57:37;;;;;;;0.70;0.70;;;8.90;99.90;;;;;;5088638;28;21150;-74
2023/11/07 09:00:07;;;;;;;0.90;0.67;;;8.90;99.90;;;;;;5088901;28;20675;-74
2023/11/07 09:02:35;;;;;;;0.57;0.57;;;8.90;99.90;;;;;;5088850;28;20711;-75
2023/11/07 09:05:03;;;;;;;0.80;0.70;;;9.00;99.90;;;;;;5088623;28;20709;-75
2023/11/07 09:07:30;;;;;;;0.67;0.67;;;9.00;99.90;;;;;;5087882;28;20636;-75
2023/11/07 09:09:57;;;;;;;0.63;0.60;;;9.00;99.90;;;;;;5088497;28;20616;-75
2023/11/07 09:12:24;;;;;;;1.07;0.80;;;9.00;99.90;;;;;;5087177;28;20625;-75
2023/11/07 09:14:51;;;;;;;1.83;0.67;;;9.10;99.90;;;;;;5088433;28;20631;-74
2023/11/07 09:17:17;;;;;;;1.17;0.70;;;9.20;99.90;;;;;;5088100;28;20627;-74
2023/11/07 09:19:46;;;;;;;0.70;0.70;;;9.30;99.90;;;;;;5088382;28;20628;-75
2023/11/07 09:22:13;;;;;;;0.60;0.60;;;9.40;99.90;;;;;;5087994;28;21310;-74
2023/11/07 09:24:40;;;;;;;0.97;0.70;;;9.40;99.90;;;;;;5087913;28;20621;-74
2023/11/07 09:27:07;;;;;;;0.63;0.63;;;9.50;99.90;;;;;;5088129;28;21279;-74
2023/11/07 09:29:34;;;;;;;1.03;0.60;;;9.60;99.90;;;;;;5088336;28;20617;-74
2023/11/07 09:32:03;;;;;;;0.93;0.83;;;9.70;99.90;;;;;;5088386;28;20633;-75
2023/11/07 09:34:30;;;;;;;0.50;0.40;;;9.70;99.90;;;;;;5087837;28;20648;-75
2023/11/07 09:36:59;;;;;;;0.60;0.50;;;9.90;99.90;;;;;;5088193;28;20625;-75
2023/11/07 09:39:26;;;;;;;0.57;0.50;;;9.90;99.90;;;;;;5087465;28;20622;-75
2023/11/07 09:41:53;;;;;;;1.10;0.60;;;10.00;99.80;;;;;;5087817;28;20671;-74
2023/11/07 09:44:20;;;;;;;1.00;0.50;;;10.20;99.50;;;;;;5088070;28;20625;-75
2023/11/07 09:46:49;;;;;;;0.50;0.40;;;10.30;98.50;;;;;;5087711;28;20720;-74
2023/11/07 09:49:16;;;;;;;0.63;0.50;;;10.30;98.30;;;;;;5087184;28;20613;-76
2023/11/07 09:51:46;;;;;;;0.57;0.50;;;10.20;98.30;;;;;;5078730;28;20625;-75
2023/11/07 09:54:21;;;;;;;0.57;0.43;;;10.10;98.90;;;;;;5088132;28;20629;-75
2023/11/07 09:56:51;;;;;;;2.90;0.87;;;10.00;98.60;;;;;;5087389;28;21534;-74
2023/11/07 09:59:28;;;;;;;0.30;0.20;;;10.00;98.80;;;;;;5087233;28;20625;-74
2023/11/07 10:01:55;;;;;;;0.50;0.40;;;10.10;98.90;;;;;;5079287;28;20672;-74
2023/11/07 10:04:22;;;;;;;0.70;0.63;;;10.10;98.90;;;;;;5087699;28;21003;-74
2023/11/07 10:06:49;;;;;;;0.67;0.40;;;10.20;98.90;;;;;;5087692;28;20617;-74
2023/11/07 10:09:17;;;;;;;1.80;0.53;;;10.40;98.90;;;;;;5087100;28;20635;-74
2023/11/07 10:11:45;;;;;;;0.60;0.40;;;10.40;99.00;;;;;;5087298;28;20625;-73
2023/11/07 10:14:12;;;;;;;0.97;0.60;;;10.60;98.40;;;;;;5086917;28;21273;-74
2023/11/07 10:16:40;;;;;;;0.80;0.40;;;10.60;97.90;;;;;;5087481;28;20635;-74
2023/11/07 10:19:07;;;;;;;1.03;0.67;;;10.70;98.20;;;;;;5086520;28;20625;-75
2023/11/07 10:21:37;;;;;;;0.40;0.30;;;10.80;97.20;;;;;;5087619;28;20955;-74
2023/11/07 10:24:04;;;;;;;3.00;0.53;;;10.80;96.50;;;;;;5086331;28;20636;-74
2023/11/07 10:26:33;;;;;;;0.30;0.20;;;10.90;96.40;;;;;;5086639;28;20690;-74
2023/11/07 10:29:13;;;;;;;0.60;0.60;;;10.90;96.50;;;;;;5086228;28;20708;-75
2023/11/07 10:31:42;;;;;;;0.40;0.40;;;11.10;96.20;;;;;;5087435;28;20625;-74
2023/11/07 10:34:13;;;;;;;0.40;0.27;;;11.10;96.10;;;;;;5087040;28;20614;-73
2023/11/07 10:36:40;;;;;;;0.50;0.40;;;11.10;95.60;;;;;;5087237;28;20629;-74
2023/11/07 10:39:13;;;;;;;0.30;0.30;;;11.10;95.20;;;;;;5086063;28;20637;-75
2023/11/07 10:41:41;;;;;;;0.40;0.30;;;11.20;94.80;;;;;;5087220;28;20720;-74
2023/11/07 10:44:16;;;;;;;0.73;0.50;;;11.10;95.20;;;;;;5086869;28;20621;-74
2023/11/07 10:46:44;;;;;;;0.30;0.30;;;11.10;96.20;;;;;;5079269;28;20624;-74
2023/11/07 10:49:13;;;;;;;1.00;0.50;;;11.10;95.80;;;;;;5086492;28;20616;-75
2023/11/07 10:51:42;;;;;;;0.80;0.40;;;11.00;95.90;;;;;;5086391;28;20626;-74
2023/11/07 10:54:09;;;;;;;2.03;0.60;;;10.90;95.00;;;;;;5086821;28;21184;-74
2023/11/07 10:56:39;;;;;;;0.40;0.33;;;10.90;95.30;;;;;;5086919;28;20629;-75
2023/11/07 10:59:14;;;;;;;0.50;0.40;;;11.10;95.90;;;;;;5086144;28;20667;-75
2023/11/07 11:01:45;;;;;;;0.40;0.40;;;11.10;95.60;;;;;;5086864;28;20624;-74
2023/11/07 11:04:13;;;;;;;0.60;0.47;;;11.00;95.20;;;;;;5086181;28;20621;-74
2023/11/07 11:06:42;;;;;;;0.60;0.40;;;10.90;96.60;;;;;;5086812;28;21052;-74
2023/11/07 11:09:11;;;;;;;0.37;0.33;;;10.80;96.60;;;;;;5085979;28;20629;-74
2023/11/07 11:11:39;;;;;;;0.50;0.30;;;10.50;96.50;;;;;;5086485;28;20628;-73
2023/11/07 11:14:09;;;;;;;0.40;0.33;;;10.40;98.40;;;;;;5078064;28;20632;-74
2023/11/07 11:16:38;;;;;;;0.40;0.30;;;10.20;99.00;;;;;;5086033;28;20609;-73
2023/11/07 11:19:15;;;;;;;0.70;0.60;;;10.20;98.90;;;;;;5085908;28;20689;-74
2023/11/07 11:21:52;;;;;;;0.40;0.30;;;10.20;99.80;;;;;;5086702;28;20621;-73
2023/11/07 11:24:28;;;;;;;0.60;0.33;;;10.10;99.90;;;;;;5079034;28;20623;-73
2023/11/07 11:27:03;;;;;;;1.23;0.90;;;10.00;99.90;;;;;;5086059;28;20621;-73
2023/11/07 11:29:31;;;;;;;0.70;0.50;;;10.10;99.90;;;;;;5085914;28;20629;-73
2023/11/07 11:31:58;;;;;;;0.30;0.30;;;10.10;99.90;;;;;;5086505;28;20617;-73
2023/11/07 11:34:27;;;;;;;1.00;0.73;;;10.10;99.90;;;;;;5077912;28;21465;-73
2023/11/07 11:36:56;;;;;;;0.70;0.70;;;10.20;99.90;;;;;;5086404;28;20625;-73
2023/11/07 11:39:46;;;;;;;0.50;0.30;;;10.10;99.90;;;;;;5086040;28;20633;-73
2023/11/07 11:42:13;;;;;;;0.43;0.40;;;9.90;99.90;;;;;;5086493;28;21003;-73
2023/11/07 11:44:41;;;;;;;1.07;0.30;;;9.90;99.90;;;;;;5086073;28;20627;-73
2023/11/07 11:47:11;;;;;;;0.80;0.40;;;9.90;99.90;;;;;;5086485;28;20629;-73
2023/11/07 11:50:14;;;;;;;1.20;0.70;;;10.00;99.90;;;;;;5086161;28;20975;-74
2023/11/07 11:52:42;;;;;;;1.57;0.60;;;10.20;99.90;;;;;;5085988;28;21206;-74
2023/11/07 11:55:12;;;;;;;0.77;0.67;;;10.30;99.90;;;;;;5086274;28;21095;-74
2023/11/07 11:58:16;;;;;;;0.60;0.40;;;10.30;99.90;;;;;;5085800;28;20616;-75
2023/11/07 12:00:49;;;;;;;0.87;0.60;;;10.30;99.50;;;;;;5081392;28;20644;-75
2023/11/07 12:03:18;;;;;;;1.03;0.60;;;10.20;99.70;;;;;;5086393;28;21237;-75
2023/11/07 12:06:04;;;;;;;0.40;0.40;;;10.30;99.90;;;;;;5086007;28;20636;-75
2023/11/07 12:08:38;;;;;;;0.40;0.30;;;10.40;99.30;;;;;;5085558;28;20629;-75
2023/11/07 12:11:06;;;;;;;0.40;0.40;;;10.50;99.00;;;;;;5078369;28;20686;-75
2023/11/07 12:13:33;;;;;;;0.43;0.43;;;10.50;99.10;;;;;;5086040;28;20742;-75
2023/11/07 12:16:15;;;;;;;0.40;0.30;;;10.70;99.50;;;;;;5089126;28;21189;-75
2023/11/07 12:18:43;;;;;;;0.30;0.20;;;10.80;99.40;;;;;;5089170;28;20694;-75
2023/11/07 12:21:10;;;;;;;0.40;0.40;;;10.80;98.60;;;;;;5089103;28;20624;-75
2023/11/07 12:23:37;;;;;;;0.40;0.30;;;10.80;98.40;;;;;;5089476;28;21248;-75
2023/11/07 12:26:06;;;;;;;0.70;0.47;;;10.80;97.80;;;;;;5089433;28;20736;-75
2023/11/07 12:28:42;;;;;;;1.07;0.47;;;10.80;98.20;;;;;;5089089;28;20633;-75
2023/11/07 12:31:10;;;;;;;0.40;0.40;;;10.70;97.60;;;;;;5089200;28;20620;-74
2023/11/07 12:33:41;;;;;;;0.40;0.40;;;10.60;97.30;;;;;;5089559;28;20635;-75
2023/11/07 12:36:10;;;;;;;0.40;0.20;;;10.50;96.30;;;;;;5089538;28;20617;-75
2023/11/07 12:38:37;;;;;;;0.50;0.33;;;10.60;97.00;;;;;;5088885;28;20625;-74
2023/11/07 12:41:05;;;;;;;0.30;0.30;;;10.70;97.40;;;;;;5089349;28;20625;-75
2023/11/07 12:43:37;;;;;;;0.83;0.30;;;10.80;97.10;;;;;;5098883;28;20692;-75
2023/11/07 12:46:11;;;;;;;0.40;0.30;;;10.90;96.60;;;;;;5093277;28;20986;-75
2023/11/07 12:48:38;;;;;;;0.30;0.30;;;10.90;97.00;;;;;;5088843;28;20639;-75
2023/11/07 12:51:08;;;;;;;0.37;0.30;;;10.70;96.20;;;;;;5089156;28;20632;-75
2023/11/07 12:53:45;;;;;;;0.97;0.30;;;10.90;96.90;;;;;;5089535;28;21157;-75
2023/11/07 12:56:12;;;;;;;0.50;0.30;;;10.90;96.80;;;;;;5088822;28;20991;-75
2023/11/07 12:58:38;;;;;;;0.63;0.33;;;11.00;96.30;;;;;;5088040;28;20631;-74
2023/11/07 13:01:07;;;;;;;0.30;0.30;;;10.90;96.00;;;;;;5088931;28;20617;-75